createdAt,value
2023-10-04T00:02:13.686Z,74.48
2023-10-04T00:04:44.872Z,74.41
2023-10-04T00:07:12.439Z,74.33
2023-10-04T00:09:39.670Z,74.53
2023-10-04T00:12:07.299Z,74.58
2023-10-04T00:14:34.610Z,74.73
2023-10-04T00:17:01.774Z,74.66
2023-10-04T00:19:33.777Z,74.51
2023-10-04T00:22:01.029Z,74.52
2023-10-04T00:24:28.161Z,74.49
2023-10-04T00:26:56.060Z,74.45
2023-10-04T00:29:23.136Z,74.32
2023-10-04T00:31:50.444Z,74.50
2023-10-04T00:34:17.560Z,74.59
2023-10-04T00:36:45.592Z,74.41
2023-10-04T00:39:15.078Z,74.61
2023-10-04T00:41:43.184Z,74.58
2023-10-04T00:44:10.710Z,74.60
2023-10-04T00:46:41.859Z,74.46
2023-10-04T00:49:09.945Z,74.69
2023-10-04T00:51:38.033Z,74.68
2023-10-04T00:54:09.075Z,74.56
2023-10-04T00:56:40.239Z,74.52
2023-10-04T00:59:08.672Z,74.78
2023-10-04T01:01:36.063Z,74.70
2023-10-04T01:04:04.217Z,74.74
2023-10-04T01:06:32.091Z,74.62
2023-10-04T01:08:59.344Z,74.74
2023-10-04T01:11:27.076Z,74.84
2023-10-04T01:14:11.068Z,74.71
2023-10-04T01:16:42.690Z,75.08
2023-10-04T01:19:15.197Z,75.17
2023-10-04T01:21:42.904Z,75.24
2023-10-04T01:24:10.786Z,75.31
2023-10-04T01:26:40.315Z,75.24
2023-10-04T01:29:13.195Z,75.35
2023-10-04T01:31:40.623Z,75.33
2023-10-04T01:34:07.734Z,75.26
2023-10-04T01:36:38.025Z,75.40
2023-10-04T01:39:09.153Z,75.11
2023-10-04T01:41:40.609Z,75.07
2023-10-04T01:44:11.178Z,75.25
2023-10-04T01:46:39.091Z,75.29
2023-10-04T01:49:08.614Z,75.08
2023-10-04T01:51:35.851Z,75.08
2023-10-04T01:54:04.807Z,75.29
2023-10-04T01:56:32.540Z,75.29
2023-10-04T01:58:59.551Z,75.17
2023-10-04T02:01:27.897Z,75.31
2023-10-04T02:03:55.266Z,75.25
2023-10-04T02:06:23.354Z,74.99
2023-10-04T02:08:51.223Z,75.31
2023-10-04T02:11:23.303Z,75.24
2023-10-04T02:13:52.171Z,75.35
2023-10-04T02:16:22.385Z,75.28
2023-10-04T02:18:50.266Z,75.11
2023-10-04T02:21:19.061Z,75.19
2023-10-04T02:23:46.767Z,75.15
2023-10-04T02:26:14.005Z,74.81
2023-10-04T02:28:41.366Z,74.87
2023-10-04T02:31:08.648Z,74.69
2023-10-04T02:33:36.203Z,74.49
2023-10-04T02:36:05.796Z,74.58
2023-10-04T02:38:35.873Z,74.54
2023-10-04T02:41:06.716Z,74.50
2023-10-04T02:43:38.241Z,74.42
2023-10-04T02:46:05.519Z,74.52
2023-10-04T02:48:34.267Z,74.54
2023-10-04T02:51:02.528Z,74.60
2023-10-04T02:53:30.563Z,74.68
2023-10-04T02:55:59.303Z,74.68
2023-10-04T02:58:37.975Z,74.78
2023-10-04T03:01:06.422Z,74.55
2023-10-04T03:03:34.989Z,74.51
2023-10-04T03:06:04.489Z,74.48
2023-10-04T03:08:33.945Z,74.43
2023-10-04T03:11:05.236Z,74.35
2023-10-04T03:13:34.545Z,74.14
2023-10-04T03:16:04.835Z,74.18
2023-10-04T03:18:34.981Z,73.81
2023-10-04T03:21:03.159Z,73.76
2023-10-04T03:23:36.972Z,73.64
2023-10-04T03:26:13.859Z,73.54
2023-10-04T03:28:42.916Z,73.25
2023-10-04T03:31:15.733Z,72.83
2023-10-04T03:33:46.809Z,72.44
2023-10-04T03:36:22.570Z,72.20
2023-10-04T03:39:02.488Z,72.11
2023-10-04T03:41:31.826Z,71.83
2023-10-04T03:44:07.234Z,71.71
2023-10-04T03:46:35.664Z,71.26
2023-10-04T03:49:03.994Z,71.18
2023-10-04T03:51:32.269Z,71.02
2023-10-04T03:54:28.664Z,71.00
2023-10-04T05:11:50.751Z,67.60
2023-10-04T05:14:18.176Z,67.70
2023-10-04T05:16:45.652Z,67.64
2023-10-04T05:19:14.484Z,67.54
2023-10-04T05:21:41.877Z,67.13
2023-10-04T05:24:11.430Z,67.25
2023-10-04T05:26:39.283Z,67.09
2023-10-04T05:29:06.779Z,66.98
2023-10-04T05:31:34.316Z,66.82
2023-10-04T05:34:01.762Z,66.65
2023-10-04T05:36:29.493Z,66.75
2023-10-04T05:38:57.852Z,66.68
2023-10-04T05:41:26.723Z,66.55
2023-10-04T05:43:54.201Z,66.88
2023-10-04T05:46:21.471Z,66.58
2023-10-04T05:48:50.033Z,66.46
2023-10-04T05:51:18.950Z,66.29
2023-10-04T05:53:49.035Z,66.03
2023-10-04T05:56:18.728Z,66.07
2023-10-04T05:58:45.894Z,65.86
2023-10-04T06:01:20.437Z,65.58
2023-10-04T06:03:48.001Z,65.30
2023-10-04T06:06:15.345Z,65.18
2023-10-04T06:08:42.665Z,65.08
2023-10-04T06:11:11.065Z,64.98
2023-10-04T06:13:38.571Z,64.82
2023-10-04T06:16:06.287Z,64.79
2023-10-04T06:18:33.690Z,64.72
2023-10-04T06:21:01.583Z,64.63
2023-10-04T06:23:32.695Z,64.58
2023-10-04T06:26:01.264Z,64.39
2023-10-04T06:28:30.283Z,64.19
2023-10-04T06:30:58.242Z,64.10
2023-10-04T06:33:26.350Z,63.99
2023-10-04T06:35:53.601Z,63.76
2023-10-04T06:38:22.208Z,64.04
2023-10-04T06:40:49.488Z,64.34
2023-10-04T06:43:16.725Z,64.41
2023-10-04T06:45:44.284Z,64.28
2023-10-04T06:48:12.209Z,64.21
2023-10-04T06:50:40.988Z,63.97
2023-10-04T06:53:10.372Z,63.78
2023-10-04T06:55:39.130Z,63.37
2023-10-04T06:58:08.525Z,63.50
2023-10-04T07:00:38.974Z,63.22
2023-10-04T07:03:06.928Z,63.07
2023-10-04T07:05:37.236Z,63.13
2023-10-04T07:08:09.898Z,62.67
2023-10-04T07:10:37.940Z,62.85
2023-10-04T07:13:07.086Z,62.68
2023-10-04T07:15:38.146Z,62.71
2023-10-04T07:18:11.510Z,62.37
2023-10-04T07:20:39.650Z,62.57
2023-10-04T07:23:09.682Z,62.49
2023-10-04T07:25:39.352Z,62.03
2023-10-04T07:28:10.589Z,62.22
2023-10-04T07:30:39.697Z,61.43
2023-10-04T07:33:08.674Z,61.92
2023-10-04T07:35:36.415Z,62.58
2023-10-04T07:38:06.694Z,61.97
2023-10-04T07:40:34.025Z,61.60
2023-10-04T07:43:03.183Z,60.76
2023-10-04T07:45:32.770Z,60.58
2023-10-04T07:48:01.037Z,60.38
2023-10-04T07:50:29.933Z,60.10
2023-10-04T07:52:58.086Z,59.58
2023-10-04T07:55:26.927Z,60.02
2023-10-04T07:57:59.996Z,59.28
2023-10-04T08:00:27.723Z,59.46
2023-10-04T08:02:55.684Z,59.07
2023-10-04T08:05:27.664Z,58.34
2023-10-04T08:07:56.299Z,58.05
2023-10-04T08:10:26.429Z,57.20
2023-10-04T08:12:56.305Z,56.44
2023-10-04T08:15:27.391Z,56.44
2023-10-04T08:17:55.700Z,56.31
2023-10-04T08:20:24.184Z,55.67
2023-10-04T08:22:51.550Z,55.43
2023-10-04T08:25:22.633Z,54.76
2023-10-04T08:27:50.421Z,55.41
2023-10-04T08:30:18.438Z,54.69
2023-10-04T08:32:49.688Z,54.83
2023-10-04T08:35:25.954Z,54.64
2023-10-04T08:37:54.509Z,54.78
2023-10-04T08:40:22.771Z,53.63
2023-10-04T08:42:53.594Z,54.48
2023-10-04T08:45:21.531Z,54.92
2023-10-04T08:47:51.883Z,54.21
2023-10-04T08:50:27.474Z,53.69
2023-10-04T08:53:00.653Z,54.03
2023-10-04T08:55:28.019Z,53.90
2023-10-04T08:57:55.415Z,53.44
2023-10-04T09:00:30.629Z,52.68
2023-10-04T09:02:59.360Z,52.42
2023-10-04T09:05:29.820Z,51.13
2023-10-04T09:07:57.487Z,51.41
2023-10-04T09:10:25.202Z,51.33
2023-10-04T09:12:59.446Z,51.17
2023-10-04T09:15:27.699Z,50.60
2023-10-04T09:17:58.884Z,50.76
2023-10-04T09:20:31.038Z,50.98
2023-10-04T09:23:00.895Z,50.38
2023-10-04T09:25:38.147Z,50.03
2023-10-04T09:28:06.669Z,49.83
2023-10-04T09:30:37.937Z,49.24
2023-10-04T09:33:06.714Z,49.16
2023-10-04T09:35:43.389Z,49.58
2023-10-04T09:38:17.816Z,49.64
2023-10-04T09:40:52.912Z,49.67
2023-10-04T09:43:34.203Z,48.63
2023-10-04T09:46:01.601Z,48.71
2023-10-04T09:48:33.151Z,47.65
2023-10-04T09:51:06.305Z,47.33
2023-10-04T09:53:40.738Z,46.64
2023-10-04T09:56:14.939Z,46.99
2023-10-04T09:58:50.261Z,45.87
2023-10-04T10:01:21.512Z,46.07
2023-10-04T10:04:11.433Z,47.40
2023-10-04T10:06:47.195Z,48.52
2023-10-04T10:09:18.149Z,47.32
2023-10-04T10:11:47.195Z,46.65
2023-10-04T10:14:15.422Z,46.44
2023-10-04T10:16:43.853Z,46.75
2023-10-04T10:19:11.254Z,46.36
2023-10-04T10:22:09.957Z,45.72
2023-10-04T10:24:43.721Z,45.35
2023-10-04T10:27:11.174Z,45.02
2023-10-04T10:29:39.646Z,45.51
2023-10-04T10:32:23.874Z,44.55
2023-10-04T10:34:53.818Z,44.07
2023-10-04T10:37:24.817Z,44.64
2023-10-04T10:39:53.310Z,44.93
2023-10-04T10:42:21.202Z,45.73
2023-10-04T10:44:49.773Z,45.27
2023-10-04T10:47:26.880Z,44.04
2023-10-04T10:49:59.939Z,45.05
2023-10-04T10:52:40.222Z,44.56
2023-10-04T10:55:19.051Z,44.84
2023-10-04T10:57:49.229Z,45.21
2023-10-04T11:00:20.336Z,44.53
2023-10-04T11:02:54.539Z,44.07
2023-10-04T11:05:23.328Z,45.14
2023-10-04T11:07:51.970Z,44.33
2023-10-04T11:10:21.357Z,43.37
2023-10-04T11:12:49.460Z,42.83
2023-10-04T11:15:19.911Z,42.27
2023-10-04T11:17:47.572Z,42.67
2023-10-04T11:20:19.089Z,42.74
2023-10-04T11:22:46.993Z,43.62
2023-10-04T11:25:15.111Z,44.04
2023-10-04T11:27:44.526Z,43.88
2023-10-04T11:30:13.062Z,43.23
2023-10-04T11:32:47.754Z,43.21
2023-10-04T11:35:16.846Z,44.20
2023-10-04T11:37:48.680Z,44.53
2023-10-04T11:40:20.893Z,43.18
2023-10-04T11:42:50.026Z,42.38
2023-10-04T11:45:22.707Z,42.69
2023-10-04T11:48:09.760Z,42.63
2023-10-04T11:50:57.374Z,43.11
2023-10-04T11:53:35.329Z,42.81
2023-10-04T11:56:08.066Z,41.99
2023-10-04T11:58:46.077Z,41.80
2023-10-04T12:01:23.707Z,40.99
2023-10-04T12:03:51.999Z,40.99
2023-10-04T12:06:26.039Z,41.89
2023-10-04T12:08:55.377Z,42.06
2023-10-04T12:11:26.896Z,41.92
2023-10-04T12:13:55.978Z,42.08
2023-10-04T12:16:23.378Z,41.58
2023-10-04T12:18:50.943Z,41.68
2023-10-04T12:21:19.263Z,42.13
2023-10-04T12:23:47.092Z,41.81
2023-10-04T12:26:18.300Z,42.32
2023-10-04T12:28:45.806Z,42.09
2023-10-04T12:31:14.227Z,41.90
2023-10-04T12:33:44.424Z,42.59
2023-10-04T12:36:11.819Z,41.92
2023-10-04T12:38:39.205Z,41.92
2023-10-04T12:41:06.846Z,41.17
2023-10-04T12:43:34.220Z,41.36
2023-10-04T12:46:02.605Z,41.05
2023-10-04T12:48:30.103Z,41.29
2023-10-04T12:50:57.498Z,41.55
2023-10-04T12:53:24.952Z,41.17
2023-10-04T12:55:52.456Z,40.89
2023-10-04T12:58:21.696Z,41.04
2023-10-04T13:00:52.373Z,41.21
2023-10-04T13:03:20.496Z,41.75
2023-10-04T13:05:48.396Z,41.29
2023-10-04T13:08:22.445Z,41.59
2023-10-04T13:10:50.123Z,42.09
2023-10-04T13:13:17.324Z,42.81
2023-10-04T13:15:46.059Z,42.41
2023-10-04T13:18:13.473Z,42.33
2023-10-04T13:20:40.764Z,42.64
2023-10-04T13:23:08.011Z,42.74
2023-10-04T13:25:35.513Z,43.15
2023-10-04T13:28:03.251Z,42.44
2023-10-04T13:30:33.142Z,42.90
2023-10-04T13:33:00.631Z,42.27
2023-10-04T13:35:27.861Z,42.36
2023-10-04T13:37:55.229Z,42.39
2023-10-04T13:40:23.362Z,42.17
2023-10-04T13:42:54.167Z,42.36
2023-10-04T13:45:22.717Z,42.22
2023-10-04T13:47:50.498Z,42.29
2023-10-04T13:50:23.609Z,42.43
2023-10-04T13:52:52.187Z,42.68
2023-10-04T13:55:24.573Z,42.48
2023-10-04T13:57:56.449Z,42.87
2023-10-04T14:00:24.712Z,43.27
2023-10-04T14:02:56.354Z,43.58
2023-10-04T14:05:23.995Z,43.60
2023-10-04T14:07:55.661Z,44.11
2023-10-04T14:10:24.380Z,44.21
2023-10-04T14:12:59.641Z,44.24
2023-10-04T14:15:27.395Z,44.75
2023-10-04T14:17:55.920Z,44.89
2023-10-04T14:20:27.704Z,45.31
2023-10-04T14:22:57.952Z,45.63
2023-10-04T14:25:25.769Z,45.56
2023-10-04T14:27:53.802Z,45.96
2023-10-04T14:30:24.918Z,46.31
2023-10-04T14:32:53.159Z,46.44
2023-10-04T14:35:22.582Z,46.78
2023-10-04T14:37:49.857Z,46.99
2023-10-04T14:40:23.511Z,47.48
2023-10-04T14:42:53.610Z,47.59
2023-10-04T14:45:21.324Z,47.18
2023-10-04T14:47:48.648Z,47.24
2023-10-04T14:50:15.827Z,47.47
2023-10-04T14:52:43.867Z,47.36
2023-10-04T14:55:12.016Z,47.79
2023-10-04T14:57:40.351Z,48.21
2023-10-04T15:00:12.300Z,48.07
2023-10-04T15:02:39.986Z,48.34
2023-10-04T15:05:07.761Z,48.47
2023-10-04T15:07:35.460Z,48.43
2023-10-04T15:10:04.195Z,48.61
2023-10-04T15:12:32.684Z,48.86
2023-10-04T15:15:00.687Z,49.00
2023-10-04T15:17:28.441Z,49.18
2023-10-04T15:19:55.911Z,49.38
2023-10-04T15:22:23.704Z,49.54
2023-10-04T15:24:51.049Z,49.62
2023-10-04T15:27:19.461Z,49.79
2023-10-04T15:29:46.934Z,49.80
2023-10-04T15:32:15.827Z,49.79
2023-10-04T15:34:43.289Z,49.67
2023-10-04T15:37:10.539Z,49.87
2023-10-04T15:39:37.846Z,49.97
2023-10-04T15:42:05.600Z,50.26
2023-10-04T15:44:32.963Z,50.30
2023-10-04T15:47:00.425Z,50.42
2023-10-04T15:49:27.809Z,50.68
2023-10-04T15:51:55.028Z,50.76
2023-10-04T15:54:22.291Z,50.85
2023-10-04T15:56:49.767Z,51.02
2023-10-04T15:59:17.123Z,51.21
2023-10-04T16:01:44.389Z,51.33
2023-10-04T16:04:13.124Z,51.32
2023-10-04T16:06:40.565Z,51.50
2023-10-04T16:09:08.362Z,51.51
2023-10-04T16:11:36.026Z,51.54
2023-10-04T16:14:04.002Z,51.64
2023-10-04T16:16:31.484Z,51.66
2023-10-04T16:18:58.787Z,51.41
2023-10-04T16:21:26.403Z,51.60
2023-10-04T16:23:54.495Z,51.78
2023-10-04T16:26:21.920Z,51.97
2023-10-04T16:28:49.118Z,52.03
2023-10-04T16:31:17.228Z,51.96
2023-10-04T16:33:44.598Z,52.16
2023-10-04T16:36:14.914Z,52.30
2023-10-04T16:38:42.326Z,52.43
2023-10-04T16:41:09.688Z,52.51
2023-10-04T16:43:37.073Z,52.51
2023-10-04T16:46:04.514Z,52.57
2023-10-04T16:48:34.098Z,52.59
2023-10-04T16:51:01.415Z,52.74
2023-10-04T16:53:28.665Z,52.65
2023-10-04T16:55:55.823Z,52.82
2023-10-04T16:58:23.047Z,52.84
2023-10-04T17:00:50.510Z,52.99
2023-10-04T17:03:17.935Z,53.00
2023-10-04T17:05:45.216Z,52.99
2023-10-04T17:08:12.509Z,53.02
2023-10-04T17:10:46.087Z,53.10
2023-10-04T17:13:14.198Z,53.06
2023-10-04T17:15:41.629Z,53.08
2023-10-04T17:18:09.336Z,53.09
2023-10-04T17:20:36.576Z,53.04
2023-10-04T17:23:03.867Z,53.07
2023-10-04T17:25:31.190Z,53.05
2023-10-04T17:27:58.466Z,53.04
2023-10-04T17:30:29.073Z,52.99
2023-10-04T17:32:56.500Z,53.08
2023-10-04T17:35:23.936Z,53.01
2023-10-04T17:37:51.796Z,53.06
2023-10-04T17:40:21.183Z,53.17
2023-10-04T17:42:48.586Z,53.11
2023-10-04T17:45:17.381Z,53.01
2023-10-04T17:47:45.838Z,52.94
2023-10-04T17:50:13.183Z,52.98
2023-10-04T17:52:40.608Z,53.02
2023-10-04T17:55:09.878Z,53.06
2023-10-04T17:57:38.028Z,52.99
2023-10-04T18:00:12.743Z,53.11
2023-10-04T18:02:41.551Z,52.76
2023-10-04T18:05:12.212Z,53.28
2023-10-04T18:07:40.064Z,53.14
2023-10-04T18:10:08.730Z,53.35
2023-10-04T18:12:37.507Z,53.41
2023-10-04T18:15:06.160Z,53.49
2023-10-04T18:17:33.651Z,53.37
2023-10-04T18:20:04.127Z,53.55
2023-10-04T18:22:32.158Z,53.54
2023-10-04T18:24:59.695Z,53.81
2023-10-04T18:27:27.555Z,53.91
2023-10-04T18:29:55.093Z,54.12
2023-10-04T18:32:24.239Z,54.14
2023-10-04T18:34:51.605Z,54.40
2023-10-04T18:37:19.107Z,54.84
2023-10-04T18:39:46.541Z,54.82
2023-10-04T18:42:16.413Z,54.94
2023-10-04T18:44:44.138Z,55.10
2023-10-04T18:47:16.532Z,55.11
2023-10-04T18:49:45.409Z,55.14
2023-10-04T18:52:12.891Z,55.31
2023-10-04T18:54:40.341Z,55.64
2023-10-04T18:57:08.879Z,55.79
2023-10-04T18:59:36.541Z,55.95
2023-10-04T19:02:03.919Z,56.25
2023-10-04T19:04:31.392Z,56.36
2023-10-04T19:06:59.393Z,56.60
2023-10-04T19:09:26.811Z,56.96
2023-10-04T19:11:56.639Z,57.25
2023-10-04T19:14:25.400Z,57.36
2023-10-04T19:16:52.832Z,57.77
2023-10-04T19:19:21.213Z,57.74
2023-10-04T19:21:48.507Z,57.91
2023-10-04T19:24:16.522Z,58.02
2023-10-04T19:26:46.120Z,58.13
2023-10-04T19:29:14.155Z,58.51
2023-10-04T19:31:41.469Z,58.96
2023-10-04T19:34:08.975Z,59.10
2023-10-04T19:36:37.232Z,59.49
2023-10-04T19:39:04.780Z,59.47
2023-10-04T19:41:35.918Z,59.90
2023-10-04T19:44:04.773Z,60.09
2023-10-04T19:46:32.611Z,60.47
2023-10-04T19:49:01.480Z,60.66
2023-10-04T19:51:29.024Z,60.78
2023-10-04T19:53:57.130Z,61.02
2023-10-04T19:56:24.449Z,61.15
2023-10-04T19:58:55.693Z,61.26
2023-10-04T20:01:23.845Z,61.41
2023-10-04T20:03:51.508Z,61.45
2023-10-04T20:06:21.036Z,61.72
2023-10-04T20:08:48.327Z,61.67
2023-10-04T20:11:18.749Z,61.81
2023-10-04T20:13:47.131Z,62.00
2023-10-04T20:16:14.476Z,62.59
2023-10-04T20:18:41.963Z,63.08
2023-10-04T20:21:16.048Z,63.86
2023-10-04T20:23:43.675Z,63.67
2023-10-04T20:26:12.650Z,63.71
2023-10-04T20:28:40.241Z,63.73
2023-10-04T20:31:11.343Z,63.63
2023-10-04T20:33:38.955Z,63.45
2023-10-04T20:36:06.738Z,63.51
2023-10-04T20:38:33.954Z,63.50
2023-10-04T20:41:01.516Z,63.66
2023-10-04T20:43:29.349Z,63.55
2023-10-04T20:45:57.182Z,63.48
2023-10-04T20:48:24.355Z,63.51
2023-10-04T20:50:52.287Z,63.70
2023-10-04T20:53:19.893Z,63.89
2023-10-04T20:55:47.202Z,64.09
2023-10-04T20:58:17.216Z,63.89
2023-10-04T21:00:44.868Z,64.01
2023-10-04T21:03:13.231Z,64.34
2023-10-04T21:05:40.545Z,64.62
2023-10-04T21:08:09.028Z,64.90
2023-10-04T21:10:39.230Z,65.32
2023-10-04T21:13:09.345Z,66.06
2023-10-04T21:15:36.738Z,66.25
2023-10-04T21:18:04.404Z,66.41
2023-10-04T21:20:31.672Z,66.95
2023-10-04T21:23:00.279Z,67.02
2023-10-04T21:25:27.663Z,67.32
2023-10-04T21:27:55.771Z,67.55
2023-10-04T21:30:29.811Z,68.03
2023-10-04T21:33:04.573Z,68.40
2023-10-04T21:35:32.491Z,68.51
2023-10-04T21:38:01.162Z,68.62
2023-10-04T21:40:31.593Z,68.54
2023-10-04T21:43:00.150Z,68.91
2023-10-04T21:45:31.490Z,68.97
2023-10-04T21:48:07.217Z,69.02
2023-10-04T21:50:37.011Z,69.21
2023-10-04T21:53:05.028Z,69.19
2023-10-04T21:55:32.479Z,69.62
2023-10-04T21:58:00.139Z,69.62
2023-10-04T22:00:35.475Z,70.02
2023-10-04T22:03:05.087Z,69.85
2023-10-04T22:05:37.011Z,70.03
2023-10-04T22:08:13.738Z,70.39
2023-10-04T22:10:42.744Z,70.29
2023-10-04T22:13:10.187Z,70.17
2023-10-04T22:15:37.535Z,70.14
2023-10-04T22:18:05.466Z,70.49
2023-10-04T22:20:33.092Z,70.75
2023-10-04T22:23:00.742Z,70.85
2023-10-04T22:25:28.809Z,70.76
2023-10-04T22:27:56.445Z,71.03
2023-10-04T22:30:24.001Z,71.66
2023-10-04T22:32:51.688Z,71.13
2023-10-04T22:35:24.426Z,71.03
2023-10-04T22:37:52.453Z,70.99
2023-10-04T22:40:20.419Z,71.13
2023-10-04T22:42:48.715Z,71.43
2023-10-04T22:45:16.876Z,71.37
2023-10-04T22:47:46.575Z,71.39
2023-10-04T22:50:16.508Z,71.78
2023-10-04T22:52:43.798Z,71.66
2023-10-04T22:55:15.860Z,71.91
2023-10-04T22:57:43.705Z,71.92
2023-10-04T23:00:26.321Z,72.09
2023-10-04T23:02:56.483Z,72.10
2023-10-04T23:05:26.280Z,72.40
2023-10-04T23:07:54.101Z,72.69
2023-10-04T23:10:24.441Z,72.75
2023-10-04T23:12:53.517Z,72.94
2023-10-04T23:15:38.771Z,73.09
2023-10-04T23:18:18.165Z,73.22
2023-10-04T23:20:57.414Z,72.96
2023-10-04T23:23:28.467Z,73.21
2023-10-04T23:25:56.245Z,73.38
2023-10-04T23:28:24.560Z,73.54
2023-10-04T23:30:52.494Z,73.66
2023-10-04T23:33:20.905Z,73.61
2023-10-04T23:35:51.771Z,74.03
2023-10-04T23:38:22.605Z,74.08
2023-10-04T23:40:51.123Z,74.11
2023-10-04T23:43:23.270Z,74.16
2023-10-04T23:45:51.669Z,74.43
2023-10-04T23:48:25.871Z,74.33
2023-10-04T23:50:57.485Z,74.20
2023-10-04T23:53:45.440Z,74.07
2023-10-04T23:56:12.865Z,74.08
2023-10-04T23:58:45.123Z,74.03
